Serodino, Argentina
Current Conditions -  °F | °C
As of 1:00 PM on Friday 21 Nov 2014 (Local Time) from SAAR Reporting Station
Broken Clouds Broken Clouds  
Wind Chill: 68°   Ceiling: 10000
Heat Index: 68°   Visibility: 6mi
Dew Point: 55°   Wind: 8mph
Humidity: 64%   Direction: 90°E
Pressure: 29.91"   Gusts: NA
Location:  32.62°S, 60.95°W
Report Text: SAAR 211600Z 09007KT 9999 FEW025 SCT028BKN100 20/13 Q1013
Loading
Personal Weather Stations






























Interactive Weather Map New forecast layout! Learn more

10-Day Weather Forecast

Advertisements
Track Severe Weather on mobile